sensor_id;sensor_type;location;lat;lon;timestamp;temperature;humidity
8979;DHT22;4524;51.364;5.448;2023-04-10T00:02:23;10.30;99.90
8979;DHT22;4524;51.364;5.448;2023-04-10T00:04:51;10.30;99.90
8979;DHT22;4524;51.364;5.448;2023-04-10T00:07:21;10.30;99.90
8979;DHT22;4524;51.364;5.448;2023-04-10T00:09:48;10.30;99.90
8979;DHT22;4524;51.364;5.448;2023-04-10T00:12:16;10.30;99.90
8979;DHT22;4524;51.364;5.448;2023-04-10T00:14:44;10.20;99.90
8979;DHT22;4524;51.364;5.448;2023-04-10T00:17:12;10.20;99.90
8979;DHT22;4524;51.364;5.448;2023-04-10T00:19:40;10.20;99.90
8979;DHT22;4524;51.364;5.448;2023-04-10T00:22:08;10.10;99.90
8979;DHT22;4524;51.364;5.448;2023-04-10T00:24:37;10.10;99.90
8979;DHT22;4524;51.364;5.448;2023-04-10T00:27:05;10.10;99.90
8979;DHT22;4524;51.364;5.448;2023-04-10T00:29:33;10.10;99.90
8979;DHT22;4524;51.364;5.448;2023-04-10T00:32:01;10.10;99.90
8979;DHT22;4524;51.364;5.448;2023-04-10T00:34:29;10.00;99.90
8979;DHT22;4524;51.364;5.448;2023-04-10T00:36:57;10.00;99.90
8979;DHT22;4524;51.364;5.448;2023-04-10T00:39:26;10.00;99.90
8979;DHT22;4524;51.364;5.448;2023-04-10T00:41:56;10.00;99.90
8979;DHT22;4524;51.364;5.448;2023-04-10T00:44:24;10.00;99.90
8979;DHT22;4524;51.364;5.448;2023-04-10T00:46:52;10.00;99.90
8979;DHT22;4524;51.364;5.448;2023-04-10T00:49:20;10.00;99.90
8979;DHT22;4524;51.364;5.448;2023-04-10T00:51:48;9.90;99.90
8979;DHT22;4524;51.364;5.448;2023-04-10T00:54:17;9.90;99.90
8979;DHT22;4524;51.364;5.448;2023-04-10T00:56:45;9.90;99.90
8979;DHT22;4524;51.364;5.448;2023-04-10T00:59:15;9.90;99.90
8979;DHT22;4524;51.364;5.448;2023-04-10T01:01:43;9.90;99.90
8979;DHT22;4524;51.364;5.448;2023-04-10T01:04:12;9.80;99.90
8979;DHT22;4524;51.364;5.448;2023-04-10T01:06:50;9.80;99.90
8979;DHT22;4524;51.364;5.448;2023-04-10T01:09:31;9.80;99.90
8979;DHT22;4524;51.364;5.448;2023-04-10T01:12:07;9.80;99.90
8979;DHT22;4524;51.364;5.448;2023-04-10T01:14:45;9.80;99.90
8979;DHT22;4524;51.364;5.448;2023-04-10T01:17:19;9.80;99.90
8979;DHT22;4524;51.364;5.448;2023-04-10T01:19:57;9.80;99.90
8979;DHT22;4524;51.364;5.448;2023-04-10T01:22:37;9.80;99.90
8979;DHT22;4524;51.364;5.448;2023-04-10T01:25:18;9.70;99.90
8979;DHT22;4524;51.364;5.448;2023-04-10T01:28:04;9.70;99.90
8979;DHT22;4524;51.364;5.448;2023-04-10T01:30:36;9.60;99.90
8979;DHT22;4524;51.364;5.448;2023-04-10T01:33:05;9.60;99.90
8979;DHT22;4524;51.364;5.448;2023-04-10T01:35:36;9.60;99.90
8979;DHT22;4524;51.364;5.448;2023-04-10T01:38:06;9.50;99.90
8979;DHT22;4524;51.364;5.448;2023-04-10T01:40:38;9.50;99.90
8979;DHT22;4524;51.364;5.448;2023-04-10T01:43:09;9.50;99.90
8979;DHT22;4524;51.364;5.448;2023-04-10T01:45:50;9.50;99.90
8979;DHT22;4524;51.364;5.448;2023-04-10T01:48:18;9.40;99.90
8979;DHT22;4524;51.364;5.448;2023-04-10T01:50:47;9.30;99.90
8979;DHT22;4524;51.364;5.448;2023-04-10T01:53:16;9.30;99.90
8979;DHT22;4524;51.364;5.448;2023-04-10T01:55:44;9.30;99.90
8979;DHT22;4524;51.364;5.448;2023-04-10T01:58:14;9.30;99.90
8979;DHT22;4524;51.364;5.448;2023-04-10T02:00:42;9.20;99.90
8979;DHT22;4524;51.364;5.448;2023-04-10T02:03:13;9.20;99.90
8979;DHT22;4524;51.364;5.448;2023-04-10T02:05:51;9.10;99.90
8979;DHT22;4524;51.364;5.448;2023-04-10T02:08:27;9.10;99.90
8979;DHT22;4524;51.364;5.448;2023-04-10T02:11:05;9.10;99.90
8979;DHT22;4524;51.364;5.448;2023-04-10T02:13:38;9.00;99.90
8979;DHT22;4524;51.364;5.448;2023-04-10T02:16:08;9.00;99.90
8979;DHT22;4524;51.364;5.448;2023-04-10T02:18:40;9.00;99.90
8979;DHT22;4524;51.364;5.448;2023-04-10T02:21:08;9.00;99.90
8979;DHT22;4524;51.364;5.448;2023-04-10T02:23:40;9.10;99.90
8979;DHT22;4524;51.364;5.448;2023-04-10T02:26:08;9.00;99.90
8979;DHT22;4524;51.364;5.448;2023-04-10T02:28:37;9.00;99.90
8979;DHT22;4524;51.364;5.448;2023-04-10T02:31:05;9.00;99.90
8979;DHT22;4524;51.364;5.448;2023-04-10T02:33:34;9.10;99.90
8979;DHT22;4524;51.364;5.448;2023-04-10T02:36:04;9.10;99.90
8979;DHT22;4524;51.364;5.448;2023-04-10T02:38:32;9.10;99.90
8979;DHT22;4524;51.364;5.448;2023-04-10T02:41:00;9.10;99.90
8979;DHT22;4524;51.364;5.448;2023-04-10T02:43:28;9.10;99.90
8979;DHT22;4524;51.364;5.448;2023-04-10T02:45:56;9.00;99.90
8979;DHT22;4524;51.364;5.448;2023-04-10T02:48:28;9.10;99.90
8979;DHT22;4524;51.364;5.448;2023-04-10T02:51:00;9.10;99.90
8979;DHT22;4524;51.364;5.448;2023-04-10T02:53:29;9.10;99.90
8979;DHT22;4524;51.364;5.448;2023-04-10T02:55:59;9.00;99.90
8979;DHT22;4524;51.364;5.448;2023-04-10T02:58:28;9.00;99.90
8979;DHT22;4524;51.364;5.448;2023-04-10T03:00:58;9.10;99.90
8979;DHT22;4524;51.364;5.448;2023-04-10T03:03:41;9.00;99.90
8979;DHT22;4524;51.364;5.448;2023-04-10T03:06:10;9.10;99.90
8979;DHT22;4524;51.364;5.448;2023-04-10T03:08:41;9.00;99.90
8979;DHT22;4524;51.364;5.448;2023-04-10T03:11:10;9.00;99.90
8979;DHT22;4524;51.364;5.448;2023-04-10T03:13:38;9.00;99.90
8979;DHT22;4524;51.364;5.448;2023-04-10T03:16:06;9.00;99.90
8979;DHT22;4524;51.364;5.448;2023-04-10T03:18:34;9.00;99.90
8979;DHT22;4524;51.364;5.448;2023-04-10T03:21:03;9.00;99.90
8979;DHT22;4524;51.364;5.448;2023-04-10T03:23:31;9.00;99.90
8979;DHT22;4524;51.364;5.448;2023-04-10T03:26:00;9.00;99.90
8979;DHT22;4524;51.364;5.448;2023-04-10T03:28:35;8.90;99.90
8979;DHT22;4524;51.364;5.448;2023-04-10T03:31:03;8.90;99.90
8979;DHT22;4524;51.364;5.448;2023-04-10T03:33:34;8.90;99.90
8979;DHT22;4524;51.364;5.448;2023-04-10T03:36:03;8.90;99.90
8979;DHT22;4524;51.364;5.448;2023-04-10T03:38:32;8.90;99.90
8979;DHT22;4524;51.364;5.448;2023-04-10T03:41:01;8.80;99.90
8979;DHT22;4524;51.364;5.448;2023-04-10T03:43:31;8.90;99.90
8979;DHT22;4524;51.364;5.448;2023-04-10T03:46:01;8.80;99.90
8979;DHT22;4524;51.364;5.448;2023-04-10T03:48:29;8.80;99.90
8979;DHT22;4524;51.364;5.448;2023-04-10T03:50:57;8.80;99.90
8979;DHT22;4524;51.364;5.448;2023-04-10T03:53:26;8.80;99.90
8979;DHT22;4524;51.364;5.448;2023-04-10T03:55:55;8.70;99.90
8979;DHT22;4524;51.364;5.448;2023-04-10T03:58:25;8.70;99.90
8979;DHT22;4524;51.364;5.448;2023-04-10T04:00:54;8.70;99.90
8979;DHT22;4524;51.364;5.448;2023-04-10T04:03:31;8.70;99.90
8979;DHT22;4524;51.364;5.448;2023-04-10T04:05:59;8.60;99.90
8979;DHT22;4524;51.364;5.448;2023-04-10T04:08:27;8.60;99.90
8979;DHT22;4524;51.364;5.448;2023-04-10T04:11:06;8.60;99.90
8979;DHT22;4524;51.364;5.448;2023-04-10T04:13:51;8.50;99.90
8979;DHT22;4524;51.364;5.448;2023-04-10T04:16:33;8.50;99.90
8979;DHT22;4524;51.364;5.448;2023-04-10T04:19:11;8.50;99.90
8979;DHT22;4524;51.364;5.448;2023-04-10T04:21:49;8.40;99.90
8979;DHT22;4524;51.364;5.448;2023-04-10T04:24:24;8.40;99.90
8979;DHT22;4524;51.364;5.448;2023-04-10T04:27:01;8.40;99.90
8979;DHT22;4524;51.364;5.448;2023-04-10T04:29:48;8.40;99.90
8979;DHT22;4524;51.364;5.448;2023-04-10T04:32:55;8.40;99.90
8979;DHT22;4524;51.364;5.448;2023-04-10T04:35:34;8.30;99.90
8979;DHT22;4524;51.364;5.448;2023-04-10T04:38:21;8.40;99.90
8979;DHT22;4524;51.364;5.448;2023-04-10T04:40:59;8.30;99.90
8979;DHT22;4524;51.364;5.448;2023-04-10T04:43:43;8.30;99.90
8979;DHT22;4524;51.364;5.448;2023-04-10T04:46:21;8.30;99.90
8979;DHT22;4524;51.364;5.448;2023-04-10T04:49:09;8.30;99.90
8979;DHT22;4524;51.364;5.448;2023-04-10T04:51:47;8.30;99.90
8979;DHT22;4524;51.364;5.448;2023-04-10T04:54:38;8.30;99.90
8979;DHT22;4524;51.364;5.448;2023-04-10T04:57:32;8.30;99.90
8979;DHT22;4524;51.364;5.448;2023-04-10T05:00:07;8.40;99.90
8979;DHT22;4524;51.364;5.448;2023-04-10T05:02:50;8.30;99.90
8979;DHT22;4524;51.364;5.448;2023-04-10T05:05:35;8.30;99.90
8979;DHT22;4524;51.364;5.448;2023-04-10T05:08:29;8.30;99.90
8979;DHT22;4524;51.364;5.448;2023-04-10T05:11:04;8.30;99.90
8979;DHT22;4524;51.364;5.448;2023-04-10T05:13:39;8.40;99.90
8979;DHT22;4524;51.364;5.448;2023-04-10T05:16:21;8.40;99.90
8979;DHT22;4524;51.364;5.448;2023-04-10T05:19:11;8.40;99.90
8979;DHT22;4524;51.364;5.448;2023-04-10T05:21:58;8.40;99.90
8979;DHT22;4524;51.364;5.448;2023-04-10T05:24:52;8.50;99.90
8979;DHT22;4524;51.364;5.448;2023-04-10T05:27:24;8.50;99.90
8979;DHT22;4524;51.364;5.448;2023-04-10T05:30:12;8.60;99.90
8979;DHT22;4524;51.364;5.448;2023-04-10T05:32:42;8.60;99.90
8979;DHT22;4524;51.364;5.448;2023-04-10T05:35:42;8.60;99.90
8979;DHT22;4524;51.364;5.448;2023-04-10T05:38:23;8.70;99.90
8979;DHT22;4524;51.364;5.448;2023-04-10T05:41:26;8.80;99.90
8979;DHT22;4524;51.364;5.448;2023-04-10T05:44:03;8.90;99.90
8979;DHT22;4524;51.364;5.448;2023-04-10T05:46:53;8.90;99.90
8979;DHT22;4524;51.364;5.448;2023-04-10T05:49:40;9.00;99.90
8979;DHT22;4524;51.364;5.448;2023-04-10T05:52:18;9.00;99.90
8979;DHT22;4524;51.364;5.448;2023-04-10T05:54:49;9.10;99.90
8979;DHT22;4524;51.364;5.448;2023-04-10T05:57:36;9.20;99.90
8979;DHT22;4524;51.364;5.448;2023-04-10T06:00:22;9.20;99.90
8979;DHT22;4524;51.364;5.448;2023-04-10T06:03:28;9.30;99.90
8979;DHT22;4524;51.364;5.448;2023-04-10T06:06:00;9.40;99.90
8979;DHT22;4524;51.364;5.448;2023-04-10T06:08:31;9.40;99.90
8979;DHT22;4524;51.364;5.448;2023-04-10T06:11:00;9.50;99.90
8979;DHT22;4524;51.364;5.448;2023-04-10T06:13:30;9.60;99.90
8979;DHT22;4524;51.364;5.448;2023-04-10T06:16:00;9.60;99.90
8979;DHT22;4524;51.364;5.448;2023-04-10T06:18:29;9.70;99.90
8979;DHT22;4524;51.364;5.448;2023-04-10T06:20:57;9.80;99.90
8979;DHT22;4524;51.364;5.448;2023-04-10T06:23:27;9.90;99.90
8979;DHT22;4524;51.364;5.448;2023-04-10T06:25:56;10.00;99.90
8979;DHT22;4524;51.364;5.448;2023-04-10T06:28:24;10.00;99.90
8979;DHT22;4524;51.364;5.448;2023-04-10T06:30:56;10.10;99.90
8979;DHT22;4524;51.364;5.448;2023-04-10T06:33:30;10.10;99.90
8979;DHT22;4524;51.364;5.448;2023-04-10T06:35:58;10.10;99.90
8979;DHT22;4524;51.364;5.448;2023-04-10T06:38:28;10.20;99.90
8979;DHT22;4524;51.364;5.448;2023-04-10T06:40:57;10.30;99.90
8979;DHT22;4524;51.364;5.448;2023-04-10T06:43:25;10.30;99.90
8979;DHT22;4524;51.364;5.448;2023-04-10T06:45:53;10.50;99.90
8979;DHT22;4524;51.364;5.448;2023-04-10T06:48:21;10.60;99.90
8979;DHT22;4524;51.364;5.448;2023-04-10T06:50:49;10.50;99.90
8979;DHT22;4524;51.364;5.448;2023-04-10T06:53:17;10.70;99.90
8979;DHT22;4524;51.364;5.448;2023-04-10T06:55:45;10.70;99.90
8979;DHT22;4524;51.364;5.448;2023-04-10T06:58:14;10.70;99.90
8979;DHT22;4524;51.364;5.448;2023-04-10T07:00:43;10.80;99.90
8979;DHT22;4524;51.364;5.448;2023-04-10T07:03:11;10.90;99.90
8979;DHT22;4524;51.364;5.448;2023-04-10T07:05:39;11.00;99.90
8979;DHT22;4524;51.364;5.448;2023-04-10T07:08:08;11.00;99.90
8979;DHT22;4524;51.364;5.448;2023-04-10T07:10:36;10.90;99.90
8979;DHT22;4524;51.364;5.448;2023-04-10T07:13:04;11.00;99.90
8979;DHT22;4524;51.364;5.448;2023-04-10T07:15:33;11.10;99.90
8979;DHT22;4524;51.364;5.448;2023-04-10T07:18:01;11.20;99.90
8979;DHT22;4524;51.364;5.448;2023-04-10T07:20:29;11.20;99.90
8979;DHT22;4524;51.364;5.448;2023-04-10T07:22:57;11.20;99.90
8979;DHT22;4524;51.364;5.448;2023-04-10T07:25:26;11.20;99.90
8979;DHT22;4524;51.364;5.448;2023-04-10T07:27:53;11.30;99.90
8979;DHT22;4524;51.364;5.448;2023-04-10T07:30:21;11.30;99.90
8979;DHT22;4524;51.364;5.448;2023-04-10T07:32:50;11.40;99.90
8979;DHT22;4524;51.364;5.448;2023-04-10T07:35:19;11.40;99.90
8979;DHT22;4524;51.364;5.448;2023-04-10T07:37:47;11.50;99.90
8979;DHT22;4524;51.364;5.448;2023-04-10T07:40:18;11.50;99.90
8979;DHT22;4524;51.364;5.448;2023-04-10T07:42:46;11.60;99.90
8979;DHT22;4524;51.364;5.448;2023-04-10T07:45:14;11.60;99.90
8979;DHT22;4524;51.364;5.448;2023-04-10T07:47:42;11.70;99.90
8979;DHT22;4524;51.364;5.448;2023-04-10T07:50:11;11.80;99.90
8979;DHT22;4524;51.364;5.448;2023-04-10T07:52:39;11.90;99.90
8979;DHT22;4524;51.364;5.448;2023-04-10T07:55:07;12.00;99.90
8979;DHT22;4524;51.364;5.448;2023-04-10T07:57:35;12.10;99.90
8979;DHT22;4524;51.364;5.448;2023-04-10T08:00:04;12.20;99.90
8979;DHT22;4524;51.364;5.448;2023-04-10T08:02:38;12.40;99.90
8979;DHT22;4524;51.364;5.448;2023-04-10T08:05:07;12.70;99.90
8979;DHT22;4524;51.364;5.448;2023-04-10T08:07:37;12.90;99.90
8979;DHT22;4524;51.364;5.448;2023-04-10T08:10:05;13.10;99.90
8979;DHT22;4524;51.364;5.448;2023-04-10T08:12:33;13.30;99.90
8979;DHT22;4524;51.364;5.448;2023-04-10T08:15:01;13.50;99.90
8979;DHT22;4524;51.364;5.448;2023-04-10T08:17:29;13.70;99.90
8979;DHT22;4524;51.364;5.448;2023-04-10T08:19:57;13.80;99.90
8979;DHT22;4524;51.364;5.448;2023-04-10T08:22:25;13.80;99.90
8979;DHT22;4524;51.364;5.448;2023-04-10T08:24:55;13.80;99.90
8979;DHT22;4524;51.364;5.448;2023-04-10T08:27:23;13.90;99.90
8979;DHT22;4524;51.364;5.448;2023-04-10T08:29:51;14.00;99.90
8979;DHT22;4524;51.364;5.448;2023-04-10T08:32:19;13.90;99.90
8979;DHT22;4524;51.364;5.448;2023-04-10T08:34:47;14.10;99.90
8979;DHT22;4524;51.364;5.448;2023-04-10T08:37:16;14.10;99.90
8979;DHT22;4524;51.364;5.448;2023-04-10T08:39:45;14.30;99.90
8979;DHT22;4524;51.364;5.448;2023-04-10T08:42:14;14.40;99.90
8979;DHT22;4524;51.364;5.448;2023-04-10T08:44:42;14.50;99.90
8979;DHT22;4524;51.364;5.448;2023-04-10T08:47:12;14.60;99.90
8979;DHT22;4524;51.364;5.448;2023-04-10T08:49:47;14.70;99.90
8979;DHT22;4524;51.364;5.448;2023-04-10T08:52:19;14.70;99.90
8979;DHT22;4524;51.364;5.448;2023-04-10T08:54:50;14.80;99.90
8979;DHT22;4524;51.364;5.448;2023-04-10T08:57:21;14.80;99.90
8979;DHT22;4524;51.364;5.448;2023-04-10T08:59:50;14.90;99.90
8979;DHT22;4524;51.364;5.448;2023-04-10T09:02:19;14.90;99.90
8979;DHT22;4524;51.364;5.448;2023-04-10T09:04:49;14.90;99.90
8979;DHT22;4524;51.364;5.448;2023-04-10T09:07:17;15.10;99.90
8979;DHT22;4524;51.364;5.448;2023-04-10T09:09:45;15.10;99.90
8979;DHT22;4524;51.364;5.448;2023-04-10T09:12:14;15.20;99.90
8979;DHT22;4524;51.364;5.448;2023-04-10T09:14:44;15.20;99.90
8979;DHT22;4524;51.364;5.448;2023-04-10T09:17:15;15.40;99.90
8979;DHT22;4524;51.364;5.448;2023-04-10T09:19:44;15.50;99.90
8979;DHT22;4524;51.364;5.448;2023-04-10T09:22:13;15.70;99.90
8979;DHT22;4524;51.364;5.448;2023-04-10T09:24:43;15.70;99.90
8979;DHT22;4524;51.364;5.448;2023-04-10T09:27:26;15.80;99.90
8979;DHT22;4524;51.364;5.448;2023-04-10T09:29:56;15.80;99.90
8979;DHT22;4524;51.364;5.448;2023-04-10T09:32:38;15.80;99.90
8979;DHT22;4524;51.364;5.448;2023-04-10T09:35:07;15.80;99.90
8979;DHT22;4524;51.364;5.448;2023-04-10T09:37:35;15.90;99.90
8979;DHT22;4524;51.364;5.448;2023-04-10T09:40:04;15.80;99.90
8979;DHT22;4524;51.364;5.448;2023-04-10T09:42:34;15.70;99.90
8979;DHT22;4524;51.364;5.448;2023-04-10T09:45:05;15.80;99.90
8979;DHT22;4524;51.364;5.448;2023-04-10T09:47:33;15.80;99.90
8979;DHT22;4524;51.364;5.448;2023-04-10T09:50:02;15.70;99.90
8979;DHT22;4524;51.364;5.448;2023-04-10T09:52:31;15.60;99.90
8979;DHT22;4524;51.364;5.448;2023-04-10T09:55:00;15.70;99.90
8979;DHT22;4524;51.364;5.448;2023-04-10T09:57:30;15.60;99.90
8979;DHT22;4524;51.364;5.448;2023-04-10T10:00:00;15.70;99.90
8979;DHT22;4524;51.364;5.448;2023-04-10T10:02:36;15.80;99.90
8979;DHT22;4524;51.364;5.448;2023-04-10T10:05:05;15.80;99.90
8979;DHT22;4524;51.364;5.448;2023-04-10T10:07:35;15.90;99.90
8979;DHT22;4524;51.364;5.448;2023-04-10T10:10:06;16.10;99.90
8979;DHT22;4524;51.364;5.448;2023-04-10T10:12:39;16.20;99.90
8979;DHT22;4524;51.364;5.448;2023-04-10T10:15:10;16.30;99.90
8979;DHT22;4524;51.364;5.448;2023-04-10T10:17:44;16.40;99.90
8979;DHT22;4524;51.364;5.448;2023-04-10T10:20:16;16.50;99.90
8979;DHT22;4524;51.364;5.448;2023-04-10T10:22:45;16.60;99.90
8979;DHT22;4524;51.364;5.448;2023-04-10T10:25:14;16.70;99.90
8979;DHT22;4524;51.364;5.448;2023-04-10T10:27:43;16.70;99.90
8979;DHT22;4524;51.364;5.448;2023-04-10T10:30:11;16.80;99.90
8979;DHT22;4524;51.364;5.448;2023-04-10T10:32:57;16.80;99.90
8979;DHT22;4524;51.364;5.448;2023-04-10T10:35:26;16.90;99.90
8979;DHT22;4524;51.364;5.448;2023-04-10T10:37:57;17.10;99.90
8979;DHT22;4524;51.364;5.448;2023-04-10T10:40:28;17.20;99.90
8979;DHT22;4524;51.364;5.448;2023-04-10T10:43:04;17.40;99.90
8979;DHT22;4524;51.364;5.448;2023-04-10T10:45:38;17.50;99.90
8979;DHT22;4524;51.364;5.448;2023-04-10T10:48:09;17.50;99.90
8979;DHT22;4524;51.364;5.448;2023-04-10T10:50:50;17.40;99.90
8979;DHT22;4524;51.364;5.448;2023-04-10T10:53:33;17.50;99.90
8979;DHT22;4524;51.364;5.448;2023-04-10T10:56:32;17.40;99.90
8979;DHT22;4524;51.364;5.448;2023-04-10T10:59:00;17.50;99.90
8979;DHT22;4524;51.364;5.448;2023-04-10T11:01:28;17.50;99.90
8979;DHT22;4524;51.364;5.448;2023-04-10T11:03:58;17.60;99.90
8979;DHT22;4524;51.364;5.448;2023-04-10T11:06:50;17.60;99.90
8979;DHT22;4524;51.364;5.448;2023-04-10T11:09:46;17.60;99.90
8979;DHT22;4524;51.364;5.448;2023-04-10T11:12:15;17.50;99.90
8979;DHT22;4524;51.364;5.448;2023-04-10T11:14:44;17.50;99.90
8979;DHT22;4524;51.364;5.448;2023-04-10T11:17:47;17.60;99.90
8979;DHT22;4524;51.364;5.448;2023-04-10T11:20:18;17.70;99.90
8979;DHT22;4524;51.364;5.448;2023-04-10T11:23:07;17.80;99.90
8979;DHT22;4524;51.364;5.448;2023-04-10T11:25:47;18.10;99.90
8979;DHT22;4524;51.364;5.448;2023-04-10T11:28:40;18.10;99.90
8979;DHT22;4524;51.364;5.448;2023-04-10T11:31:18;18.20;99.90
8979;DHT22;4524;51.364;5.448;2023-04-10T11:33:49;18.40;99.90
8979;DHT22;4524;51.364;5.448;2023-04-10T11:36:19;18.60;99.90
8979;DHT22;4524;51.364;5.448;2023-04-10T11:38:57;18.70;99.90
8979;DHT22;4524;51.364;5.448;2023-04-10T11:41:27;18.90;99.90
8979;DHT22;4524;51.364;5.448;2023-04-10T11:43:56;18.90;99.90
8979;DHT22;4524;51.364;5.448;2023-04-10T11:46:24;18.90;99.90
8979;DHT22;4524;51.364;5.448;2023-04-10T11:48:54;19.00;99.90
8979;DHT22;4524;51.364;5.448;2023-04-10T11:51:23;18.90;99.90
8979;DHT22;4524;51.364;5.448;2023-04-10T11:54:04;18.90;99.90
8979;DHT22;4524;51.364;5.448;2023-04-10T11:56:32;18.80;99.90
8979;DHT22;4524;51.364;5.448;2023-04-10T11:59:00;18.90;99.90
8979;DHT22;4524;51.364;5.448;2023-04-10T12:01:33;18.90;99.90
8979;DHT22;4524;51.364;5.448;2023-04-10T12:04:01;19.00;99.90
8979;DHT22;4524;51.364;5.448;2023-04-10T12:06:30;18.90;99.90
8979;DHT22;4524;51.364;5.448;2023-04-10T12:08:58;18.90;99.90
8979;DHT22;4524;51.364;5.448;2023-04-10T12:11:26;18.80;99.90
8979;DHT22;4524;51.364;5.448;2023-04-10T12:13:56;18.70;99.90
8979;DHT22;4524;51.364;5.448;2023-04-10T12:16:24;18.70;99.90
8979;DHT22;4524;51.364;5.448;2023-04-10T12:18:53;18.70;99.90
8979;DHT22;4524;51.364;5.448;2023-04-10T12:21:21;18.60;99.90
8979;DHT22;4524;51.364;5.448;2023-04-10T12:23:50;18.80;99.90
8979;DHT22;4524;51.364;5.448;2023-04-10T12:26:20;18.90;99.90
8979;DHT22;4524;51.364;5.448;2023-04-10T12:28:52;19.00;99.90
8979;DHT22;4524;51.364;5.448;2023-04-10T12:31:27;19.00;99.90
8979;DHT22;4524;51.364;5.448;2023-04-10T12:33:55;19.00;99.90
8979;DHT22;4524;51.364;5.448;2023-04-10T12:36:25;19.10;99.90
8979;DHT22;4524;51.364;5.448;2023-04-10T12:38:56;19.00;99.90
8979;DHT22;4524;51.364;5.448;2023-04-10T12:41:26;18.90;99.90
8979;DHT22;4524;51.364;5.448;2023-04-10T12:44:06;19.00;99.90
8979;DHT22;4524;51.364;5.448;2023-04-10T12:46:34;18.90;99.90
8979;DHT22;4524;51.364;5.448;2023-04-10T12:49:10;18.80;99.90
8979;DHT22;4524;51.364;5.448;2023-04-10T12:51:42;18.70;99.90
8979;DHT22;4524;51.364;5.448;2023-04-10T12:54:26;18.70;99.90
8979;DHT22;4524;51.364;5.448;2023-04-10T12:56:54;18.70;99.90
8979;DHT22;4524;51.364;5.448;2023-04-10T12:59:22;18.60;99.90
8979;DHT22;4524;51.364;5.448;2023-04-10T13:01:50;18.40;99.90
8979;DHT22;4524;51.364;5.448;2023-04-10T13:04:18;18.40;99.90
8979;DHT22;4524;51.364;5.448;2023-04-10T13:06:47;18.40;99.90
8979;DHT22;4524;51.364;5.448;2023-04-10T13:09:19;18.40;99.90
8979;DHT22;4524;51.364;5.448;2023-04-10T13:11:47;18.30;99.90
8979;DHT22;4524;51.364;5.448;2023-04-10T13:14:17;18.20;99.90
8979;DHT22;4524;51.364;5.448;2023-04-10T13:16:45;18.30;99.90
8979;DHT22;4524;51.364;5.448;2023-04-10T13:19:13;18.20;99.90
8979;DHT22;4524;51.364;5.448;2023-04-10T13:21:41;18.10;99.90
8979;DHT22;4524;51.364;5.448;2023-04-10T13:24:09;18.10;99.90
8979;DHT22;4524;51.364;5.448;2023-04-10T13:26:38;18.10;99.90
8979;DHT22;4524;51.364;5.448;2023-04-10T13:29:06;18.10;99.90
8979;DHT22;4524;51.364;5.448;2023-04-10T13:31:34;18.20;99.90
8979;DHT22;4524;51.364;5.448;2023-04-10T13:34:02;18.30;99.90
8979;DHT22;4524;51.364;5.448;2023-04-10T13:36:30;18.10;99.90
8979;DHT22;4524;51.364;5.448;2023-04-10T13:38:58;18.10;99.90
8979;DHT22;4524;51.364;5.448;2023-04-10T13:41:26;18.10;99.90
8979;DHT22;4524;51.364;5.448;2023-04-10T13:43:55;18.10;99.90
8979;DHT22;4524;51.364;5.448;2023-04-10T13:46:24;18.20;99.90
8979;DHT22;4524;51.364;5.448;2023-04-10T13:48:52;18.40;99.90
8979;DHT22;4524;51.364;5.448;2023-04-10T13:51:20;18.50;99.90
8979;DHT22;4524;51.364;5.448;2023-04-10T13:53:47;18.60;99.90
8979;DHT22;4524;51.364;5.448;2023-04-10T13:56:15;18.50;99.90
8979;DHT22;4524;51.364;5.448;2023-04-10T13:58:44;18.40;99.90
8979;DHT22;4524;51.364;5.448;2023-04-10T14:01:13;18.40;99.90
8979;DHT22;4524;51.364;5.448;2023-04-10T14:03:41;18.30;99.90
8979;DHT22;4524;51.364;5.448;2023-04-10T14:06:09;18.10;99.90
8979;DHT22;4524;51.364;5.448;2023-04-10T14:08:37;18.00;99.90
8979;DHT22;4524;51.364;5.448;2023-04-10T14:11:06;18.10;99.90
8979;DHT22;4524;51.364;5.448;2023-04-10T14:13:34;18.00;99.90
8979;DHT22;4524;51.364;5.448;2023-04-10T14:16:01;18.10;99.90
8979;DHT22;4524;51.364;5.448;2023-04-10T14:18:31;17.90;99.90
8979;DHT22;4524;51.364;5.448;2023-04-10T14:20:59;17.80;99.90
8979;DHT22;4524;51.364;5.448;2023-04-10T14:23:27;17.60;99.90
8979;DHT22;4524;51.364;5.448;2023-04-10T14:25:55;17.30;99.90
8979;DHT22;4524;51.364;5.448;2023-04-10T14:28:23;17.10;99.90
8979;DHT22;4524;51.364;5.448;2023-04-10T14:30:51;17.00;99.90
8979;DHT22;4524;51.364;5.448;2023-04-10T14:33:19;17.00;99.90
8979;DHT22;4524;51.364;5.448;2023-04-10T14:35:52;16.90;99.90
8979;DHT22;4524;51.364;5.448;2023-04-10T14:38:20;16.70;99.90
8979;DHT22;4524;51.364;5.448;2023-04-10T14:40:48;16.60;99.90
8979;DHT22;4524;51.364;5.448;2023-04-10T14:43:16;16.60;99.90
8979;DHT22;4524;51.364;5.448;2023-04-10T14:45:45;16.50;99.90
8979;DHT22;4524;51.364;5.448;2023-04-10T14:48:13;16.40;99.90
8979;DHT22;4524;51.364;5.448;2023-04-10T14:50:41;16.30;99.90
8979;DHT22;4524;51.364;5.448;2023-04-10T14:53:10;16.20;99.90
8979;DHT22;4524;51.364;5.448;2023-04-10T14:55:38;16.00;99.90
8979;DHT22;4524;51.364;5.448;2023-04-10T14:58:06;15.90;99.90
8979;DHT22;4524;51.364;5.448;2023-04-10T15:00:36;15.90;99.90
8979;DHT22;4524;51.364;5.448;2023-04-10T15:03:04;15.90;99.90
8979;DHT22;4524;51.364;5.448;2023-04-10T15:05:34;15.90;99.90
8979;DHT22;4524;51.364;5.448;2023-04-10T15:08:02;16.00;99.90
8979;DHT22;4524;51.364;5.448;2023-04-10T15:10:31;16.00;99.90
8979;DHT22;4524;51.364;5.448;2023-04-10T15:12:59;16.00;99.90
8979;DHT22;4524;51.364;5.448;2023-04-10T15:15:27;16.00;99.90
8979;DHT22;4524;51.364;5.448;2023-04-10T15:17:55;16.00;99.90
8979;DHT22;4524;51.364;5.448;2023-04-10T15:20:23;16.10;99.90
8979;DHT22;4524;51.364;5.448;2023-04-10T15:22:51;16.10;99.90
8979;DHT22;4524;51.364;5.448;2023-04-10T15:25:19;16.10;99.90
8979;DHT22;4524;51.364;5.448;2023-04-10T15:27:48;16.20;99.90
8979;DHT22;4524;51.364;5.448;2023-04-10T15:30:16;16.30;99.90
8979;DHT22;4524;51.364;5.448;2023-04-10T15:32:44;16.30;99.90
8979;DHT22;4524;51.364;5.448;2023-04-10T15:35:12;16.20;99.90
8979;DHT22;4524;51.364;5.448;2023-04-10T15:37:40;16.30;99.90
8979;DHT22;4524;51.364;5.448;2023-04-10T15:40:09;16.20;99.90
8979;DHT22;4524;51.364;5.448;2023-04-10T15:42:37;16.30;99.90
8979;DHT22;4524;51.364;5.448;2023-04-10T15:45:07;16.30;99.90
8979;DHT22;4524;51.364;5.448;2023-04-10T15:47:35;16.10;99.90
8979;DHT22;4524;51.364;5.448;2023-04-10T15:50:03;16.00;99.90
8979;DHT22;4524;51.364;5.448;2023-04-10T15:52:31;15.90;99.90
8979;DHT22;4524;51.364;5.448;2023-04-10T15:54:59;15.80;99.90
8979;DHT22;4524;51.364;5.448;2023-04-10T15:57:27;15.80;99.90
8979;DHT22;4524;51.364;5.448;2023-04-10T15:59:55;15.80;99.90
8979;DHT22;4524;51.364;5.448;2023-04-10T16:02:27;15.60;99.90
8979;DHT22;4524;51.364;5.448;2023-04-10T16:04:55;15.70;99.90
8979;DHT22;4524;51.364;5.448;2023-04-10T16:07:23;15.70;99.90
8979;DHT22;4524;51.364;5.448;2023-04-10T16:09:51;15.70;99.90
8979;DHT22;4524;51.364;5.448;2023-04-10T16:12:20;15.70;99.90
8979;DHT22;4524;51.364;5.448;2023-04-10T16:14:48;15.70;99.90
8979;DHT22;4524;51.364;5.448;2023-04-10T16:17:16;15.70;99.90
8979;DHT22;4524;51.364;5.448;2023-04-10T16:19:45;15.70;99.90
8979;DHT22;4524;51.364;5.448;2023-04-10T16:22:13;15.70;99.90
8979;DHT22;4524;51.364;5.448;2023-04-10T16:24:41;15.60;99.90
8979;DHT22;4524;51.364;5.448;2023-04-10T16:27:09;15.60;99.90
8979;DHT22;4524;51.364;5.448;2023-04-10T16:29:37;15.60;99.90
8979;DHT22;4524;51.364;5.448;2023-04-10T16:32:05;15.60;99.90
8979;DHT22;4524;51.364;5.448;2023-04-10T16:34:33;15.60;99.90
8979;DHT22;4524;51.364;5.448;2023-04-10T16:37:02;15.50;99.90